Time;durP1;ratioP1;P1;durP2;ratioP2;P2;SDS_P1;SDS_P2;PMS_P1;PMS_P2;Temp;Humidity;BMP_temperature;BMP_pressure;BME280_temperature;BME280_humidity;BME280_pressure;Samples;Min_cycle;Max_cycle;Signal;HPM_P1;HPM_P2
2022/08/13 00:01:24;;;;;;;14.63;11.13;;;19.40;99.90;;;;;;4916336;29;20235;-77
2022/08/13 00:03:53;;;;;;;14.67;10.97;;;19.40;99.90;;;;;;4916434;29;20306;-76
2022/08/13 00:09:22;;;;;;;15.97;11.83;;;19.40;99.90;;;;;;4927152;29;20286;-77
2022/08/13 00:15:05;;;;;;;13.77;11.17;;;19.40;99.90;;;;;;4928429;29;20214;-75
2022/08/13 00:17:42;;;;;;;15.27;11.63;;;19.40;99.90;;;;;;4916117;29;20227;-75
2022/08/13 00:20:38;;;;;;;16.97;11.00;;;19.40;99.90;;;;;;4917519;29;20210;-74
2022/08/13 00:23:07;;;;;;;14.23;11.37;;;19.40;99.90;;;;;;4926434;29;20653;-75
2022/08/13 00:25:51;;;;;;;15.83;11.30;;;19.40;99.90;;;;;;4915969;29;20219;-74
2022/08/13 00:28:23;;;;;;;13.23;11.30;;;19.40;99.90;;;;;;4916791;29;20203;-74
2022/08/13 00:30:51;;;;;;;17.13;11.33;;;19.40;99.90;;;;;;4931930;29;20274;-73
2022/08/13 00:33:21;;;;;;;12.87;10.33;;;19.40;99.90;;;;;;4915623;29;20219;-73
2022/08/13 00:36:08;;;;;;;13.73;10.70;;;19.40;99.90;;;;;;4933574;29;20715;-74
2022/08/13 00:38:36;;;;;;;15.77;10.47;;;19.40;99.90;;;;;;4934647;29;20250;-74
2022/08/13 00:41:06;;;;;;;12.77;10.10;;;19.40;99.90;;;;;;4934286;29;20230;-75
2022/08/13 00:43:43;;;;;;;13.67;10.33;;;19.30;99.90;;;;;;4934514;29;20213;-74
2022/08/13 00:46:13;;;;;;;12.47;9.97;;;19.40;99.90;;;;;;4936278;29;20290;-75
2022/08/13 00:48:43;;;;;;;12.30;10.40;;;19.40;99.90;;;;;;4933808;29;20673;-72
2022/08/13 00:51:22;;;;;;;12.73;10.30;;;19.30;99.90;;;;;;4919126;29;20258;-74
2022/08/13 00:54:13;;;;;;;12.87;10.30;;;19.40;99.90;;;;;;4920529;29;20604;-74
2022/08/13 00:56:40;;;;;;;13.27;9.50;;;19.40;99.90;;;;;;4919224;29;20724;-75
2022/08/13 00:59:14;;;;;;;13.77;9.63;;;19.40;99.90;;;;;;4934678;29;20255;-72
2022/08/13 01:01:45;;;;;;;12.37;9.93;;;19.30;99.90;;;;;;4920633;29;20197;-74
2022/08/13 01:04:21;;;;;;;15.90;9.83;;;19.30;99.90;;;;;;4919030;29;20204;-74
2022/08/13 01:06:55;;;;;;;12.87;9.73;;;19.30;99.90;;;;;;4919257;29;20244;-74
2022/08/13 01:09:29;;;;;;;11.77;9.30;;;19.30;99.90;;;;;;4919242;29;20247;-74
2022/08/13 01:12:19;;;;;;;12.07;8.67;;;19.20;99.90;;;;;;4920331;29;20219;-73
2022/08/13 01:14:55;;;;;;;10.27;7.97;;;19.20;99.90;;;;;;4920365;29;20254;-74
2022/08/13 01:17:23;;;;;;;12.40;9.10;;;19.20;99.90;;;;;;4918987;29;20203;-74
2022/08/13 01:20:18;;;;;;;11.47;8.73;;;19.20;99.90;;;;;;4918736;29;20200;-74
2022/08/13 01:23:02;;;;;;;11.30;8.77;;;19.20;99.90;;;;;;4918821;29;20235;-75
2022/08/13 01:25:30;;;;;;;10.70;8.17;;;19.10;99.90;;;;;;4918848;29;20234;-73
2022/08/13 01:28:18;;;;;;;10.07;8.27;;;19.10;99.90;;;;;;4919990;29;20195;-75
2022/08/13 01:30:46;;;;;;;9.63;8.50;;;19.20;99.90;;;;;;4920036;29;20199;-75
2022/08/13 01:33:17;;;;;;;10.40;8.37;;;19.20;99.90;;;;;;4918679;29;20231;-74
2022/08/13 01:35:45;;;;;;;9.90;8.63;;;19.20;99.90;;;;;;4918507;29;20274;-75
2022/08/13 01:38:15;;;;;;;12.00;8.63;;;19.20;99.90;;;;;;4919151;29;20207;-74
2022/08/13 01:40:49;;;;;;;9.70;8.07;;;19.20;99.90;;;;;;4934971;29;20295;-74
2022/08/13 01:43:19;;;;;;;10.80;8.53;;;19.20;99.90;;;;;;4934410;29;20223;-75
2022/08/13 01:45:50;;;;;;;10.83;8.60;;;19.10;99.90;;;;;;4919802;29;20223;-74
2022/08/13 01:51:30;;;;;;;11.33;8.30;;;19.10;99.90;;;;;;4919613;29;20529;-73
2022/08/13 01:54:09;;;;;;;12.43;8.13;;;19.10;99.90;;;;;;4918509;29;20196;-74
2022/08/13 01:56:59;;;;;;;19.27;8.67;;;19.10;99.90;;;;;;4917454;29;20195;-74
2022/08/13 01:59:29;;;;;;;11.17;8.47;;;19.00;99.90;;;;;;4918264;29;20291;-73
2022/08/13 02:02:16;;;;;;;10.53;8.70;;;19.00;99.90;;;;;;4917788;29;20205;-74
2022/08/13 02:05:01;;;;;;;12.20;8.83;;;19.00;99.90;;;;;;4933979;29;20291;-74
2022/08/13 02:07:30;;;;;;;12.07;8.70;;;19.00;99.90;;;;;;4918187;29;20195;-74
2022/08/13 02:10:21;;;;;;;11.10;8.77;;;19.10;99.90;;;;;;4919199;29;20570;-74
2022/08/13 02:12:49;;;;;;;11.70;8.87;;;19.10;99.90;;;;;;4917743;29;20314;-74
2022/08/13 02:15:17;;;;;;;13.37;8.37;;;19.10;99.90;;;;;;4919136;29;20216;-74
2022/08/13 02:17:56;;;;;;;10.17;8.40;;;19.10;99.90;;;;;;4918285;29;20188;-74
2022/08/13 02:20:31;;;;;;;9.87;8.63;;;19.10;99.90;;;;;;4917959;29;20638;-75
2022/08/13 02:22:58;;;;;;;10.87;8.73;;;19.10;99.90;;;;;;4917731;29;20207;-74
2022/08/13 02:25:28;;;;;;;11.83;8.47;;;19.10;99.90;;;;;;4917932;29;20231;-74
2022/08/13 02:27:58;;;;;;;11.67;8.80;;;19.10;99.90;;;;;;4917531;29;20295;-73
2022/08/13 02:30:27;;;;;;;13.67;9.13;;;19.10;99.90;;;;;;4917919;29;20207;-74
2022/08/13 02:32:56;;;;;;;10.40;8.33;;;19.10;99.90;;;;;;4917791;29;20223;-74
2022/08/13 02:35:23;;;;;;;11.43;8.73;;;19.00;99.90;;;;;;4917570;29;20780;-73
2022/08/13 02:38:06;;;;;;;14.20;8.50;;;19.00;99.90;;;;;;4918179;29;20211;-74
2022/08/13 02:43:42;;;;;;;12.20;8.57;;;19.00;99.90;;;;;;4917686;29;20701;-73
2022/08/13 02:46:26;;;;;;;10.27;8.43;;;18.90;99.90;;;;;;4917217;29;20207;-72
2022/08/13 02:48:58;;;;;;;12.17;9.10;;;18.90;99.90;;;;;;4933657;29;20258;-74
2022/08/13 02:51:27;;;;;;;11.67;8.50;;;18.90;99.90;;;;;;4918214;29;20195;-75
2022/08/13 02:54:18;;;;;;;12.20;8.80;;;18.90;99.90;;;;;;4917077;29;20227;-76
2022/08/13 02:56:45;;;;;;;11.00;8.40;;;18.90;99.90;;;;;;4917694;29;20298;-74
2022/08/13 02:59:13;;;;;;;10.60;8.57;;;18.90;99.90;;;;;;4917652;29;20214;-74
2022/08/13 03:02:01;;;;;;;11.07;8.57;;;18.80;99.90;;;;;;4929363;29;20621;-74
2022/08/13 03:04:33;;;;;;;10.23;8.87;;;18.80;99.90;;;;;;4918666;29;20196;-74
2022/08/13 03:07:00;;;;;;;14.17;8.60;;;18.70;99.90;;;;;;4917096;29;20199;-74
2022/08/13 03:09:28;;;;;;;14.47;8.60;;;18.70;99.90;;;;;;4916257;29;20199;-74
2022/08/13 03:11:59;;;;;;;10.80;8.20;;;18.60;99.90;;;;;;4917105;29;20295;-74
2022/08/13 03:14:32;;;;;;;13.67;8.97;;;18.60;99.90;;;;;;4917431;29;20199;-75
2022/08/13 03:16:59;;;;;;;11.33;9.07;;;18.60;99.90;;;;;;4918693;29;20601;-73
2022/08/13 03:19:28;;;;;;;12.70;9.20;;;18.50;99.90;;;;;;4918300;29;20258;-74
2022/08/13 03:21:54;;;;;;;12.40;9.67;;;18.50;99.90;;;;;;4918123;29;20203;-74
2022/08/13 03:24:22;;;;;;;12.30;9.20;;;18.50;99.90;;;;;;4930976;29;20594;-74
2022/08/13 03:27:01;;;;;;;10.43;8.93;;;18.50;99.90;;;;;;4935332;29;20227;-74
2022/08/13 03:29:29;;;;;;;12.43;9.13;;;18.50;99.90;;;;;;4917621;29;20235;-74
2022/08/13 03:32:19;;;;;;;14.33;9.80;;;18.50;99.90;;;;;;4919702;29;20339;-75
2022/08/13 03:35:00;;;;;;;12.50;8.93;;;18.50;99.90;;;;;;4935119;29;20238;-75
2022/08/13 03:37:41;;;;;;;11.50;9.20;;;18.50;99.90;;;;;;4933617;29;20195;-74
2022/08/13 03:40:10;;;;;;;10.97;9.30;;;18.50;99.90;;;;;;4917365;29;20665;-73
2022/08/13 03:42:45;;;;;;;13.60;9.33;;;18.50;99.90;;;;;;4921329;29;20225;-74
2022/08/13 03:45:24;;;;;;;11.07;9.47;;;18.50;99.90;;;;;;4917701;29;20207;-74
2022/08/13 03:47:55;;;;;;;11.37;8.70;;;18.40;99.90;;;;;;4915961;29;20226;-75
2022/08/13 03:50:22;;;;;;;12.37;9.50;;;18.50;99.90;;;;;;4917146;29;20681;-75
2022/08/13 03:52:51;;;;;;;10.87;9.03;;;18.40;99.90;;;;;;4916265;29;20246;-74
2022/08/13 03:55:18;;;;;;;15.43;9.50;;;18.40;99.90;;;;;;4900260;29;20204;-72
2022/08/13 03:57:48;;;;;;;12.63;9.17;;;18.50;99.90;;;;;;4915697;29;20207;-74
2022/08/13 04:00:37;;;;;;;12.53;9.40;;;18.50;99.90;;;;;;4916008;29;20305;-74
2022/08/13 04:03:36;;;;;;;12.87;9.57;;;18.50;99.90;;;;;;4919534;29;20369;-74
2022/08/13 04:06:16;;;;;;;15.60;10.07;;;18.50;99.90;;;;;;4934676;29;20194;-71
2022/08/13 04:08:45;;;;;;;12.33;9.60;;;18.50;99.90;;;;;;4935020;29;20206;-73
2022/08/13 04:11:17;;;;;;;12.30;9.70;;;18.50;99.90;;;;;;4934889;29;20278;-72
2022/08/13 04:13:48;;;;;;;11.47;9.40;;;18.50;99.90;;;;;;4921845;29;20258;-72
2022/08/13 04:16:35;;;;;;;12.10;9.60;;;18.50;99.90;;;;;;4915657;29;20554;-71
2022/08/13 04:19:17;;;;;;;12.93;9.87;;;18.60;99.90;;;;;;4915637;29;20275;-74
2022/08/13 04:21:46;;;;;;;12.90;9.63;;;18.60;99.90;;;;;;4916178;29;20255;-74
2022/08/13 04:24:18;;;;;;;11.73;9.40;;;18.70;99.90;;;;;;4922977;29;20203;-73
2022/08/13 04:26:52;;;;;;;12.67;9.30;;;18.70;99.90;;;;;;4925670;29;20214;-75
2022/08/13 04:29:19;;;;;;;13.00;9.43;;;18.80;99.90;;;;;;4924173;29;20326;-73
2022/08/13 04:31:47;;;;;;;11.93;10.03;;;18.80;99.90;;;;;;4915227;29;20203;-74
2022/08/13 04:34:22;;;;;;;14.80;10.20;;;18.90;99.90;;;;;;4915437;29;20227;-73
2022/08/13 04:37:03;;;;;;;13.77;9.50;;;18.90;99.90;;;;;;4935775;29;20643;-73
2022/08/13 04:39:31;;;;;;;14.30;9.63;;;18.90;99.90;;;;;;4918953;29;20206;-73
2022/08/13 04:42:18;;;;;;;14.70;8.87;;;18.90;99.90;;;;;;4926894;29;20552;-75
2022/08/13 04:44:58;;;;;;;13.03;9.40;;;18.90;99.90;;;;;;4937689;29;20212;-73
2022/08/13 04:47:30;;;;;;;13.47;9.13;;;18.90;99.90;;;;;;4935822;29;20202;-72
2022/08/13 04:49:57;;;;;;;12.13;8.90;;;18.90;99.90;;;;;;4918409;29;20611;-73
2022/08/13 04:52:25;;;;;;;15.27;9.30;;;19.00;99.90;;;;;;4943116;29;20282;-72
2022/08/13 04:54:56;;;;;;;12.87;8.83;;;19.00;99.90;;;;;;4935437;29;20724;-74
2022/08/13 04:57:23;;;;;;;12.17;8.33;;;19.10;99.90;;;;;;4918728;29;20230;-73
2022/08/13 05:00:11;;;;;;;13.63;8.60;;;19.20;99.90;;;;;;4919242;29;20672;-72
2022/08/13 05:02:40;;;;;;;14.17;7.93;;;19.20;99.90;;;;;;4936889;29;20202;-72
2022/08/13 05:05:11;;;;;;;14.73;8.33;;;19.20;99.90;;;;;;4924685;29;20231;-73
2022/08/13 05:07:48;;;;;;;10.93;8.27;;;19.20;99.90;;;;;;4918637;29;20233;-73
2022/08/13 05:10:22;;;;;;;10.50;8.03;;;19.20;99.90;;;;;;4918882;29;20207;-74
2022/08/13 05:12:58;;;;;;;13.17;8.30;;;19.30;99.90;;;;;;4925474;29;20616;-72
2022/08/13 05:15:28;;;;;;;11.47;7.50;;;19.30;99.90;;;;;;4942568;29;20230;-75
2022/08/13 05:18:15;;;;;;;10.30;7.77;;;19.30;99.90;;;;;;4918868;29;20593;-76
2022/08/13 05:20:53;;;;;;;17.77;8.37;;;19.40;99.90;;;;;;4918163;29;20602;-75
2022/08/13 05:23:21;;;;;;;12.17;8.77;;;19.50;99.90;;;;;;4918344;29;20645;-75
2022/08/13 05:26:12;;;;;;;13.37;8.07;;;19.50;99.90;;;;;;4918250;29;20219;-75
2022/08/13 05:29:08;;;;;;;12.47;8.40;;;19.50;99.90;;;;;;4918258;29;20191;-75
2022/08/13 05:31:35;;;;;;;12.50;8.93;;;19.60;99.90;;;;;;4918301;29;20246;-76
2022/08/13 05:34:24;;;;;;;14.73;8.80;;;19.60;99.90;;;;;;4921008;29;20210;-74
2022/08/13 05:36:52;;;;;;;12.77;8.30;;;19.70;99.90;;;;;;4921874;29;20226;-76
2022/08/13 05:39:40;;;;;;;11.40;8.50;;;19.80;99.90;;;;;;4921603;29;20195;-76
2022/08/13 05:42:10;;;;;;;18.47;8.50;;;19.90;99.90;;;;;;4921335;29;20559;-75
2022/08/13 05:44:37;;;;;;;11.33;8.37;;;19.90;99.90;;;;;;4921790;29;20210;-75
2022/08/13 05:47:06;;;;;;;13.27;8.00;;;20.00;99.90;;;;;;4921731;29;20191;-75
2022/08/13 05:49:33;;;;;;;12.03;7.60;;;20.00;99.90;;;;;;4930409;29;20204;-76
2022/08/13 05:52:20;;;;;;;21.73;8.73;;;20.00;99.90;;;;;;4932515;29;20211;-75
2022/08/13 05:55:11;;;;;;;12.50;8.30;;;20.00;99.90;;;;;;4925884;29;20218;-74
2022/08/13 05:57:58;;;;;;;11.10;8.47;;;20.10;99.90;;;;;;4957553;29;20186;-75
2022/08/13 06:03:24;;;;;;;10.30;7.83;;;20.10;99.90;;;;;;4939243;29;20202;-76
2022/08/13 06:06:14;;;;;;;12.43;7.90;;;20.00;99.90;;;;;;4940079;29;20204;-75
2022/08/13 06:08:49;;;;;;;11.23;8.60;;;20.10;99.90;;;;;;4940245;29;20256;-77
2022/08/13 06:11:17;;;;;;;10.97;8.43;;;20.00;99.90;;;;;;4940051;29;20326;-75
2022/08/13 06:14:04;;;;;;;15.80;8.50;;;20.00;99.90;;;;;;4939696;29;20221;-78
2022/08/13 06:16:35;;;;;;;19.50;9.60;;;20.00;99.90;;;;;;4939584;29;20205;-76
2022/08/13 06:19:27;;;;;;;14.40;9.43;;;20.00;99.90;;;;;;4940370;29;20216;-76
2022/08/13 06:22:02;;;;;;;14.17;9.10;;;19.90;99.90;;;;;;4939815;29;20280;-74
2022/08/13 06:24:32;;;;;;;12.13;8.73;;;19.80;99.90;;;;;;4939958;29;20203;-77
2022/08/13 06:27:04;;;;;;;11.70;8.77;;;19.80;99.90;;;;;;4921477;29;20262;-77
2022/08/13 06:29:45;;;;;;;11.07;8.13;;;19.80;99.90;;;;;;4938181;29;20195;-76
2022/08/13 06:32:21;;;;;;;19.10;9.10;;;19.80;99.90;;;;;;4936881;29;20198;-77
2022/08/13 06:35:09;;;;;;;11.50;8.97;;;19.80;99.90;;;;;;4920384;29;20245;-75
2022/08/13 06:37:41;;;;;;;14.07;9.07;;;19.70;99.90;;;;;;4921453;29;20241;-75
2022/08/13 06:40:21;;;;;;;14.03;9.43;;;19.60;99.90;;;;;;4920679;29;20199;-74
2022/08/13 06:43:05;;;;;;;13.13;9.40;;;19.50;99.90;;;;;;4920479;29;20194;-76
2022/08/13 06:45:34;;;;;;;13.57;9.87;;;19.40;99.90;;;;;;4927611;29;20221;-74
2022/08/13 06:48:02;;;;;;;16.53;9.80;;;19.30;99.90;;;;;;4933086;29;20221;-74
2022/08/13 06:50:35;;;;;;;14.37;9.30;;;19.20;99.90;;;;;;4920107;29;20198;-74
2022/08/13 06:53:12;;;;;;;16.30;9.97;;;19.00;99.90;;;;;;4917885;29;20690;-74
2022/08/13 06:56:03;;;;;;;13.40;9.87;;;19.00;99.90;;;;;;4939271;29;20554;-75
2022/08/13 06:58:56;;;;;;;15.70;10.47;;;18.90;99.90;;;;;;4927432;29;20277;-77
2022/08/13 07:01:28;;;;;;;14.80;10.20;;;18.80;99.90;;;;;;4935947;29;20205;-76
2022/08/13 07:04:18;;;;;;;20.77;11.00;;;18.80;99.90;;;;;;4931452;29;20654;-78
2022/08/13 07:07:07;;;;;;;14.17;10.47;;;18.70;99.90;;;;;;4926325;29;20195;-75
2022/08/13 07:09:35;;;;;;;13.43;10.63;;;18.70;99.90;;;;;;4956350;29;20205;-76
2022/08/13 07:12:12;;;;;;;14.17;11.43;;;18.70;99.90;;;;;;4931787;29;20201;-78
2022/08/13 07:14:44;;;;;;;13.73;10.97;;;18.70;99.90;;;;;;4938575;29;20213;-77
2022/08/13 07:17:17;;;;;;;16.93;11.20;;;18.80;99.90;;;;;;4944704;29;20198;-77
2022/08/13 07:19:49;;;;;;;15.50;11.43;;;18.80;99.90;;;;;;4920541;29;20202;-73
2022/08/13 07:22:34;;;;;;;16.53;11.80;;;18.80;99.90;;;;;;4920036;29;20677;-77
2022/08/13 07:25:30;;;;;;;15.10;11.30;;;18.90;99.90;;;;;;4924613;29;20221;-77
2022/08/13 07:28:29;;;;;;;17.90;11.73;;;18.90;99.90;;;;;;4925754;29;20195;-78
2022/08/13 07:31:25;;;;;;;15.60;11.37;;;18.90;99.90;;;;;;4953237;29;20199;-77
2022/08/13 07:34:12;;;;;;;17.77;11.73;;;19.00;99.90;;;;;;4922090;29;20221;-77
2022/08/13 07:36:40;;;;;;;14.93;11.53;;;19.00;99.90;;;;;;4926327;29;20253;-76
2022/08/13 07:39:24;;;;;;;16.17;12.30;;;19.10;99.90;;;;;;4932093;29;20605;-75
2022/08/13 07:41:55;;;;;;;16.33;12.00;;;19.20;99.90;;;;;;4927582;29;20659;-77
2022/08/13 07:44:31;;;;;;;21.60;11.90;;;19.30;99.90;;;;;;4941285;29;20622;-76
2022/08/13 07:47:19;;;;;;;15.47;11.03;;;19.40;99.90;;;;;;4929757;29;20644;-75
2022/08/13 07:49:53;;;;;;;13.90;11.33;;;19.50;99.90;;;;;;4938257;29;20202;-77
2022/08/13 07:52:27;;;;;;;12.87;10.47;;;19.60;99.90;;;;;;4918221;29;20209;-76
2022/08/13 07:54:54;;;;;;;14.77;10.50;;;19.70;99.90;;;;;;4919153;29;20319;-76
2022/08/13 07:57:25;;;;;;;12.53;10.23;;;19.80;99.90;;;;;;4926570;29;20289;-75
2022/08/13 08:00:25;;;;;;;14.33;10.00;;;19.90;99.90;;;;;;4943440;29;20214;-76
2022/08/13 08:03:02;;;;;;;13.93;9.20;;;20.00;99.90;;;;;;4926560;29;20782;-77
2022/08/13 08:05:33;;;;;;;14.73;9.13;;;20.10;99.90;;;;;;4923534;29;20207;-77
2022/08/13 08:08:33;;;;;;;12.13;8.80;;;20.30;99.90;;;;;;4913326;29;20210;-78
2022/08/13 08:14:11;;;;;;;11.97;8.90;;;20.20;99.90;;;;;;5207426;23;20254;-77
2022/08/13 08:16:44;;;;;;;12.30;8.80;;;20.20;99.90;;;;;;4954364;23;20226;-76
2022/08/13 08:19:14;;;;;;;11.10;8.80;;;20.30;99.90;;;;;;4942539;29;20203;-78
2022/08/13 08:22:04;;;;;;;11.07;8.70;;;20.30;99.90;;;;;;4940920;29;20556;-76
2022/08/13 08:24:51;;;;;;;11.77;8.43;;;20.30;99.90;;;;;;4942068;29;20190;-75
2022/08/13 08:27:20;;;;;;;9.67;8.30;;;20.20;99.90;;;;;;4922540;29;20241;-78
2022/08/13 08:30:07;;;;;;;9.33;8.10;;;20.30;99.90;;;;;;4901060;29;20287;-78
2022/08/13 08:32:41;;;;;;;11.40;8.53;;;20.50;99.90;;;;;;4897111;29;20211;-76
2022/08/13 08:35:11;;;;;;;11.80;8.90;;;20.70;99.90;;;;;;4896788;29;20216;-79
2022/08/13 08:43:27;;;;;;;9.43;8.13;;;21.30;99.90;;;;;;4939946;23;20239;-80
2022/08/13 08:45:54;;;;;;;10.10;7.90;;;21.80;99.90;;;;;;4918419;29;20233;-78
2022/08/13 08:48:40;;;;;;;9.47;7.63;;;22.50;99.90;;;;;;4924523;29;20208;-85
2022/08/13 08:51:09;;;;;;;11.03;9.33;;;23.00;99.90;;;;;;4930797;29;20207;-75
2022/08/13 08:53:47;;;;;;;12.40;8.73;;;22.90;99.90;;;;;;4908916;29;20219;-81
2022/08/13 08:56:35;;;;;;;10.63;8.60;;;22.80;99.90;;;;;;4923602;29;20206;-79
2022/08/13 08:59:09;;;;;;;10.10;7.87;;;22.90;99.90;;;;;;4939749;23;20252;-80
2022/08/13 09:01:56;;;;;;;11.63;8.23;;;22.80;99.90;;;;;;4930915;28;20194;-81
2022/08/13 09:04:30;;;;;;;12.13;8.60;;;22.80;99.90;;;;;;4945514;28;20198;-81
2022/08/13 09:07:23;;;;;;;9.23;7.72;;;22.50;99.90;;;;;;4946451;28;20198;-79
2022/08/13 09:09:57;;;;;;;9.37;8.13;;;22.90;99.90;;;;;;4948893;28;20228;-79
2022/08/13 09:12:26;;;;;;;11.10;8.43;;;23.10;99.90;;;;;;4958982;28;20287;-79
2022/08/13 09:14:56;;;;;;;13.07;7.82;;;23.20;99.90;;;;;;4955444;29;20609;-82
2022/08/13 09:17:24;;;;;;;11.73;7.93;;;23.50;99.90;;;;;;4940811;29;20206;-81
2022/08/13 09:20:14;;;;;;;9.02;7.85;;;23.70;99.90;;;;;;4941290;29;20202;-80
2022/08/13 09:23:07;;;;;;;9.13;7.53;;;24.00;99.90;;;;;;4949090;28;20201;-80
2022/08/13 09:25:53;;;;;;;9.27;7.28;;;24.60;99.90;;;;;;4936659;29;20226;-79
2022/08/13 09:28:24;;;;;;;9.57;7.47;;;25.10;99.90;;;;;;4921747;29;20567;-80
2022/08/13 09:31:03;;;;;;;11.88;7.50;;;25.50;99.90;;;;;;4938234;29;20205;-81
2022/08/13 09:33:38;;;;;;;8.43;6.95;;;26.00;99.90;;;;;;4941269;29;20258;-79
2022/08/13 09:36:28;;;;;;;8.00;7.20;;;25.90;99.90;;;;;;4958689;29;20672;-80
2022/08/13 09:38:56;;;;;;;7.68;6.90;;;25.90;99.90;;;;;;4958429;29;20284;-80
2022/08/13 09:41:32;;;;;;;8.02;6.95;;;26.20;99.90;;;;;;4940738;29;20198;-80
2022/08/13 09:44:04;;;;;;;8.40;6.97;;;26.10;99.90;;;;;;4941647;29;20206;-79
2022/08/13 09:47:10;;;;;;;10.02;7.10;;;25.90;99.90;;;;;;4936833;29;20210;-80
2022/08/13 09:49:56;;;;;;;8.98;7.15;;;25.80;99.90;;;;;;4934837;29;20215;-80
2022/08/13 09:52:33;;;;;;;7.97;7.10;;;25.80;99.90;;;;;;4929872;29;20292;-79
2022/08/13 09:55:04;;;;;;;8.43;7.20;;;25.80;99.90;;;;;;4943801;29;20584;-77
2022/08/13 09:57:47;;;;;;;8.63;7.20;;;25.90;99.90;;;;;;4945325;29;20519;-75
2022/08/13 10:00:22;;;;;;;9.73;6.80;;;25.60;99.90;;;;;;4945999;29;20226;-74
2022/08/13 10:03:06;;;;;;;7.82;6.07;;;25.20;99.90;;;;;;4944779;29;20198;-77
2022/08/13 10:05:34;;;;;;;8.20;6.40;;;25.30;99.90;;;;;;4912872;29;20194;-75
2022/08/13 10:08:06;;;;;;;9.45;6.75;;;25.40;99.90;;;;;;4928642;29;20207;-76
2022/08/13 10:10:34;;;;;;;8.75;6.95;;;25.60;99.90;;;;;;4930106;29;20387;-78
2022/08/13 10:13:02;;;;;;;7.97;6.60;;;25.80;99.90;;;;;;4924650;29;20195;-79
2022/08/13 10:18:28;;;;;;;8.70;6.57;;;25.60;99.90;;;;;;4892499;29;20216;-75
2022/08/13 10:20:55;;;;;;;7.80;7.00;;;25.70;99.90;;;;;;4881896;29;20197;-78
2022/08/13 10:23:22;;;;;;;7.88;6.80;;;25.60;99.90;;;;;;4897405;29;20352;-78
2022/08/13 10:26:01;;;;;;;8.77;6.63;;;25.60;99.90;;;;;;4904964;29;20315;-78
2022/08/13 10:28:34;;;;;;;7.57;6.50;;;25.60;99.90;;;;;;4900715;29;20673;-75
2022/08/13 10:31:09;;;;;;;7.70;6.93;;;25.90;99.90;;;;;;4899853;29;20199;-76
2022/08/13 10:33:58;;;;;;;9.48;6.75;;;26.70;99.90;;;;;;4914392;29;20299;-77
2022/08/13 10:36:27;;;;;;;7.32;5.60;;;27.20;99.90;;;;;;4917280;29;20230;-78
2022/08/13 10:39:06;;;;;;;6.88;5.95;;;27.90;99.90;;;;;;4914282;29;20223;-77
2022/08/13 10:41:39;;;;;;;7.47;5.75;;;28.20;99.90;;;;;;4898794;29;20206;-78
2022/08/13 10:44:26;;;;;;;7.40;5.20;;;28.60;99.90;;;;;;4916508;29;20562;-76
2022/08/13 10:46:54;;;;;;;7.93;5.80;;;28.90;99.90;;;;;;4915528;29;20258;-76
2022/08/13 10:49:22;;;;;;;6.72;5.28;;;29.20;99.90;;;;;;4894319;29;20211;-79
2022/08/13 10:51:49;;;;;;;6.50;5.60;;;29.20;99.90;;;;;;4898533;29;20304;-77
2022/08/13 10:54:30;;;;;;;7.78;5.60;;;29.50;99.90;;;;;;4882814;29;20216;-78
2022/08/13 10:56:58;;;;;;;7.10;5.13;;;30.30;99.90;;;;;;4882735;29;20299;-77
2022/08/13 10:59:26;;;;;;;9.68;5.30;;;30.50;99.90;;;;;;4899714;29;20196;-77
2022/08/13 11:01:53;;;;;;;13.20;6.00;;;31.10;99.90;;;;;;4896502;29;20223;-75
2022/08/13 11:04:20;;;;;;;6.40;4.90;;;31.40;99.90;;;;;;4910319;29;20199;-74
2022/08/13 11:06:58;;;;;;;5.28;4.78;;;31.00;99.90;;;;;;4908049;29;20288;-78
2022/08/13 11:09:28;;;;;;;7.03;4.57;;;30.80;99.90;;;;;;4915251;29;20298;-79
2022/08/13 11:12:08;;;;;;;5.30;4.80;;;30.70;99.90;;;;;;4904490;29;20295;-77
2022/08/13 11:14:34;;;;;;;5.47;4.97;;;30.70;99.90;;;;;;4937578;23;20325;-79
2022/08/13 11:17:08;;;;;;;5.45;4.95;;;30.90;99.90;;;;;;4935336;29;20238;-77
2022/08/13 11:19:56;;;;;;;6.53;5.35;;;30.70;99.90;;;;;;4937238;29;20247;-77
2022/08/13 11:22:30;;;;;;;5.45;4.95;;;30.30;99.90;;;;;;4935606;29;20218;-77
2022/08/13 11:25:03;;;;;;;6.93;5.55;;;29.90;99.90;;;;;;4903747;29;20223;-79
2022/08/13 11:27:51;;;;;;;6.20;5.60;;;29.70;99.90;;;;;;4914160;29;20233;-77
2022/08/13 11:30:20;;;;;;;6.97;5.30;;;29.10;99.90;;;;;;4911380;29;20690;-80
2022/08/13 11:33:01;;;;;;;7.25;5.88;;;28.70;99.90;;;;;;4917711;29;20238;-76
2022/08/13 11:35:35;;;;;;;6.25;4.97;;;28.60;99.90;;;;;;4917193;29;20211;-76
2022/08/13 11:38:13;;;;;;;8.27;5.50;;;28.20;99.90;;;;;;4916496;29;20215;-77
2022/08/13 11:40:52;;;;;;;8.40;5.82;;;27.90;99.90;;;;;;4900809;29;20649;-78
2022/08/13 11:43:25;;;;;;;7.68;5.75;;;27.80;99.90;;;;;;4903545;29;20208;-78
2022/08/13 11:46:11;;;;;;;6.40;5.80;;;27.80;99.90;;;;;;4914174;29;20215;-74
2022/08/13 11:48:40;;;;;;;6.68;5.57;;;27.90;99.90;;;;;;4915962;29;20199;-77
2022/08/13 11:51:07;;;;;;;7.35;6.00;;;28.00;99.90;;;;;;4917365;29;20307;-76
2022/08/13 11:53:34;;;;;;;6.57;5.60;;;28.10;99.90;;;;;;4916329;29;20225;-77
2022/08/13 11:56:21;;;;;;;7.10;6.20;;;28.10;99.90;;;;;;4917018;29;20306;-76
2022/08/13 11:58:51;;;;;;;6.70;5.70;;;28.10;99.90;;;;;;4915700;29;20211;-73
2022/08/13 12:01:25;;;;;;;7.97;5.75;;;28.00;99.90;;;;;;4915479;29;20231;-75
2022/08/13 12:04:10;;;;;;;6.85;5.95;;;27.90;99.90;;;;;;4912022;29;20200;-72
2022/08/13 12:06:44;;;;;;;7.60;6.20;;;27.60;99.90;;;;;;4903927;29;20235;-74
2022/08/13 12:09:17;;;;;;;6.90;6.20;;;27.20;99.90;;;;;;4901589;29;20200;-75
2022/08/13 12:12:04;;;;;;;8.30;6.35;;;27.00;99.90;;;;;;4915444;29;20199;-73
2022/08/13 12:14:38;;;;;;;6.97;6.20;;;26.90;99.90;;;;;;4916113;29;20239;-73
2022/08/13 12:17:06;;;;;;;8.35;6.18;;;26.80;99.90;;;;;;4915131;29;20207;-73
2022/08/13 12:19:33;;;;;;;9.05;6.40;;;26.90;99.90;;;;;;4915361;29;20294;-73
2022/08/13 12:22:00;;;;;;;7.50;6.38;;;26.90;99.90;;;;;;4915238;29;20565;-74
2022/08/13 12:24:28;;;;;;;8.40;6.43;;;26.80;99.90;;;;;;4915823;29;20266;-74
2022/08/13 12:27:00;;;;;;;8.95;6.63;;;26.80;99.90;;;;;;4915185;29;20220;-74
2022/08/13 12:29:30;;;;;;;6.97;6.28;;;26.70;99.90;;;;;;4900058;29;20286;-72
2022/08/13 12:32:16;;;;;;;9.30;6.18;;;26.60;99.90;;;;;;4915618;29;20207;-76
2022/08/13 12:34:45;;;;;;;7.93;6.78;;;26.40;99.90;;;;;;4915231;29;20310;-77
2022/08/13 12:37:19;;;;;;;8.40;6.70;;;26.30;99.90;;;;;;4915585;29;20641;-78
2022/08/13 12:39:56;;;;;;;7.88;6.35;;;26.10;99.90;;;;;;4915189;29;20693;-76
2022/08/13 12:42:26;;;;;;;8.50;6.72;;;26.00;99.90;;;;;;4899253;29;20195;-78
2022/08/13 12:44:55;;;;;;;8.35;6.68;;;25.90;99.90;;;;;;4916462;29;20199;-79
2022/08/13 12:47:46;;;;;;;7.10;6.40;;;25.90;99.90;;;;;;4914992;29;20211;-77
2022/08/13 12:50:19;;;;;;;8.68;6.90;;;25.80;99.90;;;;;;4915124;29;20199;-78
2022/08/13 12:52:49;;;;;;;11.65;6.57;;;25.80;99.90;;;;;;4915076;29;20199;-78
2022/08/13 12:55:17;;;;;;;8.88;6.68;;;25.80;99.90;;;;;;4913796;29;20227;-76
2022/08/13 12:58:20;;;;;;;7.40;6.60;;;25.80;99.90;;;;;;4912181;29;20200;-76
2022/08/13 13:00:55;;;;;;;8.18;6.78;;;25.80;99.90;;;;;;4910622;29;20211;-75
2022/08/13 13:03:26;;;;;;;8.07;6.80;;;26.00;99.90;;;;;;4915243;29;20562;-73
2022/08/13 13:06:01;;;;;;;7.50;6.57;;;26.40;99.90;;;;;;4919968;29;20199;-75
2022/08/13 13:08:33;;;;;;;7.13;6.43;;;27.10;99.90;;;;;;4919992;29;20208;-75
2022/08/13 13:11:10;;;;;;;8.68;6.32;;;27.50;99.90;;;;;;4923313;29;20226;-75
2022/08/13 13:13:40;;;;;;;7.43;5.85;;;27.90;99.90;;;;;;4915691;29;20195;-77
2022/08/13 13:16:25;;;;;;;7.60;6.10;;;28.30;99.90;;;;;;4916435;29;20207;-76
2022/08/13 13:19:07;;;;;;;7.55;6.20;;;28.70;99.90;;;;;;4914225;29;20211;-75
2022/08/13 13:21:46;;;;;;;8.30;6.25;;;28.80;99.90;;;;;;4919657;29;20217;-73
2022/08/13 13:24:17;;;;;;;8.25;6.00;;;28.70;99.90;;;;;;4920024;29;20192;-75
2022/08/13 13:26:52;;;;;;;7.07;6.18;;;28.90;99.90;;;;;;4915818;29;20219;-75
2022/08/13 13:29:41;;;;;;;7.18;5.95;;;29.00;99.90;;;;;;4907629;29;20204;-73
2022/08/13 13:32:18;;;;;;;7.40;5.97;;;29.10;99.90;;;;;;4895680;29;20204;-74
2022/08/13 13:35:05;;;;;;;6.85;6.05;;;29.30;99.90;;;;;;4895731;29;20208;-75
2022/08/13 13:37:53;;;;;;;6.72;5.80;;;29.30;99.90;;;;;;4899974;29;20196;-77
2022/08/13 13:40:38;;;;;;;8.25;5.93;;;29.50;99.90;;;;;;4912619;29;20251;-75
2022/08/13 13:43:14;;;;;;;7.28;5.60;;;29.90;99.90;;;;;;4916271;29;20204;-75
2022/08/13 13:45:53;;;;;;;9.30;6.03;;;30.50;99.90;;;;;;4915195;29;20216;-74
2022/08/13 13:48:26;;;;;;;5.72;5.13;;;31.60;99.90;;;;;;4919023;29;20210;-75
2022/08/13 13:50:55;;;;;;;6.43;5.57;;;32.90;99.90;;;;;;4917752;29;20562;-79